»·PEaware :: AAL1776 KOKC-KDFW

AAL1776 :: KOKC-KDFW

FLIGHT INFORMATION

Flight Status: Arrived
Operator:
American Airlines
More flights by this operator :: More flights under this callsign
Pilot: Drew L. (13237)
Aircraft: BOEING 737-800
(B738)
More flights by this aircraft type
Origin: KOKC Will Rogers World
United States
Destination: KDFW Dallas-Ft Worth Intl
United States
More flights between these airports :: More routes between these airports
Route: MUDDE3 MUDDE RBUKL VKTRY2
File this flight plan on PilotEdge
Remarks: PBN / A1B1C1D1S1S2 DOF / 181009 REG / N806SB OPR / AAL PER / C RMK / TCAS SIMBRIEF
Altitude:
(Current/Filed)
29,000ft
Speed:
(Current/Filed)
475kts
Departed: 09-Oct-18 03:29 PM
Arrived: 09-Oct-18 04:04 PM
Distance/Time
Traveled:
152nm/0:35
Distance/Time
To Go:
Arrived

Flight Plot

Page will automatically refresh every two minutes.

Flight plan parsing failed; only flown route is shown


Map Options




Map Legend


Flown Route
Filed Route
Departure Airport
Arrival Airport
Navaid (VOR, NDB)
Fix

Horizontal Profiles

Position Reports

Time Latitude Longitude Heading Altitude Ground
Speed
09-Oct-18 15:16 35.394466 -97.595583 347 1303ft 0kts
09-Oct-18 15:17 35.394466 -97.595583 347 1303ft 0kts
09-Oct-18 15:18 35.394466 -97.595583 347 1303ft 0kts
09-Oct-18 15:19 35.394466 -97.595583 347 1303ft 0kts
09-Oct-18 15:20 35.394466 -97.595583 347 1303ft 0kts
09-Oct-18 15:21 35.394466 -97.595583 347 1303ft 0kts
09-Oct-18 15:22 35.394466 -97.595583 347 1303ft 0kts
09-Oct-18 15:23 35.394173 -97.595505 347 1303ft 2kts
09-Oct-18 15:24 35.393381 -97.595294 347 1303ft 0kts
09-Oct-18 15:25 35.393381 -97.595294 347 1303ft 0kts
09-Oct-18 15:26 35.393712 -97.595097 48 1303ft 9kts
09-Oct-18 15:27 35.394452 -97.592203 29 1303ft 13kts
09-Oct-18 15:28 35.397648 -97.590627 358 1303ft 30kts
09-Oct-18 15:29 35.404344 -97.590641 0 1303ft 16kts
09-Oct-18 15:30 35.404292 -97.588901 175 1303ft 15kts
09-Oct-18 15:31 35.372897 -97.589679 183 2394ft 158kts
09-Oct-18 15:32 35.325627 -97.588005 177 4951ft 189kts
09-Oct-18 15:33 35.266805 -97.582574 178 7511ft 234kts
09-Oct-18 15:34 35.196635 -97.576180 178 10038ft 265kts
09-Oct-18 15:35 35.118179 -97.569020 179 12566ft 300kts
09-Oct-18 15:36 35.030991 -97.561096 179 15086ft 325kts
09-Oct-18 15:37 34.938229 -97.549458 180 17593ft 341kts
09-Oct-18 15:38 34.842275 -97.552717 184 20101ft 348kts
09-Oct-18 15:39 34.745222 -97.557732 184 22544ft 352kts
09-Oct-18 15:40 34.641434 -97.562950 184 22795ft 394kts
09-Oct-18 15:41 34.527156 -97.568620 184 22797ft 423kts
09-Oct-18 15:42 34.408610 -97.574464 184 22802ft 427kts
09-Oct-18 15:43 34.290325 -97.580268 184 22802ft 420kts
09-Oct-18 15:44 34.174742 -97.585910 184 21989ft 402kts
09-Oct-18 15:45 34.070656 -97.590985 184 19638ft 359kts
09-Oct-18 15:46 33.972857 -97.595736 184 16556ft 344kts
09-Oct-18 15:47 33.879189 -97.600344 185 13579ft 331kts
09-Oct-18 15:48 33.788877 -97.607988 185 10688ft 321kts
09-Oct-18 15:49 33.699882 -97.615419 185 10135ft 323kts
09-Oct-18 15:50 33.610018 -97.622892 185 10001ft 325kts
09-Oct-18 15:51 33.519639 -97.630494 185 9999ft 325kts
09-Oct-18 15:52 33.434515 -97.639221 189 9752ft 287kts
09-Oct-18 15:53 33.351475 -97.635129 170 7250ft 320kts
09-Oct-18 15:54 33.278085 -97.577850 128 5731ft 319kts
09-Oct-18 15:55 33.251413 -97.489747 100 6079ft 260kts
09-Oct-18 15:56 33.248165 -97.400271 98 3631ft 267kts
09-Oct-18 15:57 33.243754 -97.321363 98 3194ft 206kts
09-Oct-18 15:58 33.236965 -97.255391 113 2394ft 206kts
09-Oct-18 15:59 33.207562 -97.201626 148 3362ft 192kts
09-Oct-18 16:00 33.166968 -97.156912 158 3902ft 198kts
09-Oct-18 16:01 33.113913 -97.125594 157 4406ft 195kts
09-Oct-18 16:02 33.057400 -97.087768 159 2850ft 234kts
09-Oct-18 16:03 33.001981 -97.056912 159 1911ft 215kts
09-Oct-18 16:04 32.946718 -97.054255 181 1118ft 188kts
09-Oct-18 16:05 32.897721 -97.054491 180 615ft 99kts
09-Oct-18 16:06 32.895156 -97.054551 182 615ft 0kts
09-Oct-18 16:07 32.895155 -97.054551 182 615ft 0kts

Navigation Log

Ident Type
Flight plan parsing failed, navigation log unavailable